Time;durP1;ratioP1;P1;durP2;ratioP2;P2;SDS_P1;SDS_P2;PMS_P1;PMS_P2;Temp;Humidity;BMP_temperature;BMP_pressure;BME280_temperature;BME280_humidity;BME280_pressure;Samples;Min_cycle;Max_cycle;Signal;HPM_P1;HPM_P2
2021/08/16 08:57:10;;;;;;;;;;;;;;;;;;;;;
2021/08/16 09:00:19;;;;;;;6.67;3.83;;;21.60;99.90;;;;;;6119525;23;20422;-84
2021/08/16 09:51:52;;;;;;;5.23;4.73;;;21.50;99.00;;;;;;5759689;24;20469;-84
2021/08/16 10:18:44;;;;;;;5.70;3.73;;;21.50;99.50;;;;;;5883019;23;20416;-84
2021/08/16 10:21:12;;;;;;;5.77;5.17;;;21.60;99.60;;;;;;6041922;23;20469;-83
2021/08/16 10:23:51;;;;;;;5.57;4.70;;;21.60;99.90;;;;;;6078514;23;20408;-84
2021/08/16 10:26:27;;;;;;;4.13;3.20;;;21.70;99.10;;;;;;6100401;23;20508;-84
2021/08/16 10:28:55;;;;;;;5.93;4.07;;;21.90;99.00;;;;;;6129219;23;20713;-84
2021/08/16 10:31:26;;;;;;;6.43;4.37;;;21.90;99.20;;;;;;6222073;23;20433;-83
2021/08/16 10:33:55;;;;;;;4.87;4.43;;;21.70;99.90;;;;;;6222039;23;20390;-84
2021/08/16 10:36:23;;;;;;;5.13;4.40;;;21.70;99.50;;;;;;6220600;23;20470;-84
2021/08/16 10:38:50;;;;;;;5.63;4.83;;;21.70;99.90;;;;;;6222645;23;20418;-84
2021/08/16 10:41:29;;;;;;;4.00;3.60;;;21.60;99.70;;;;;;6222331;23;20943;-84
2021/08/16 10:43:56;;;;;;;5.37;3.53;;;21.60;99.20;;;;;;6222713;23;20942;-84
2021/08/16 10:46:24;;;;;;;6.07;4.40;;;21.80;99.30;;;;;;6222022;23;20428;-84
2021/08/16 10:49:04;;;;;;;3.50;2.97;;;21.90;99.30;;;;;;6222417;23;20417;-83
2021/08/16 10:51:43;;;;;;;6.60;4.80;;;22.20;98.30;;;;;;6222063;23;20462;-84
2021/08/16 10:54:21;;;;;;;3.90;3.37;;;22.40;99.10;;;;;;6222094;23;20414;-84
2021/08/16 10:56:50;;;;;;;5.00;3.97;;;22.70;97.90;;;;;;6221763;23;20452;-84
2021/08/16 10:59:18;;;;;;;5.00;3.30;;;22.70;97.40;;;;;;6222062;23;20949;-84
2021/08/16 11:01:45;;;;;;;3.90;3.60;;;22.70;97.40;;;;;;6222002;23;20411;-84
2021/08/16 11:04:15;;;;;;;3.90;3.30;;;22.70;97.00;;;;;;6221259;23;20411;-84
2021/08/16 11:06:53;;;;;;;3.43;3.00;;;22.90;97.20;;;;;;6221735;23;20439;-84
2021/08/16 11:09:24;;;;;;;6.07;4.00;;;23.00;97.30;;;;;;6222335;23;20398;-84
2021/08/16 11:11:54;;;;;;;7.07;4.57;;;22.90;96.60;;;;;;6220729;23;20855;-84
2021/08/16 11:14:24;;;;;;;4.77;3.73;;;22.80;96.80;;;;;;6222042;23;20417;-84
2021/08/16 11:16:52;;;;;;;9.43;3.77;;;22.70;97.60;;;;;;6229427;23;20435;-82
2021/08/16 11:19:24;;;;;;;4.63;3.83;;;22.80;97.40;;;;;;6234280;23;20483;-82
2021/08/16 11:21:56;;;;;;;4.43;4.00;;;23.10;96.80;;;;;;6230093;23;20874;-84
2021/08/16 11:24:32;;;;;;;5.10;4.20;;;23.20;96.50;;;;;;6222317;23;20498;-84
2021/08/16 11:26:59;;;;;;;4.30;3.70;;;23.00;96.00;;;;;;6221964;23;20419;-84
2021/08/16 11:29:27;;;;;;;6.27;3.73;;;23.00;96.20;;;;;;6222171;23;20415;-84
2021/08/16 11:31:58;;;;;;;4.33;3.93;;;22.60;96.30;;;;;;6221525;23;20926;-84
2021/08/16 11:34:28;;;;;;;5.77;5.20;;;22.30;97.60;;;;;;6221668;23;20390;-84
2021/08/16 11:36:56;;;;;;;6.73;4.00;;;22.00;97.00;;;;;;6222885;23;20445;-83
2021/08/16 11:39:29;;;;;;;6.10;3.57;;;21.90;97.40;;;;;;6223214;23;20418;-84
2021/08/16 11:41:59;;;;;;;5.30;3.87;;;22.50;97.40;;;;;;6221953;23;20756;-84
2021/08/16 11:44:27;;;;;;;3.90;3.40;;;23.30;96.60;;;;;;6221732;23;20792;-83
2021/08/16 11:46:58;;;;;;;4.23;3.83;;;24.20;95.40;;;;;;6222099;23;20491;-84
2021/08/16 11:49:31;;;;;;;4.97;3.97;;;24.80;93.60;;;;;;6220898;23;20417;-84
2021/08/16 13:24:56;;;;;;;4.77;4.27;;;22.60;93.10;;;;;;5839985;24;20553;-84
2021/08/16 13:27:30;;;;;;;4.00;3.60;;;22.10;93.30;;;;;;6014163;23;20841;-84
2021/08/16 13:30:00;;;;;;;6.27;4.07;;;22.10;93.00;;;;;;6122003;23;20412;-84
2021/08/16 13:57:34;;;;;;;5.67;4.43;;;22.30;90.70;;;;;;6002584;23;20543;-84
2021/08/16 14:00:06;;;;;;;4.03;3.73;;;22.20;90.70;;;;;;6101729;23;20444;-84
2021/08/16 14:02:40;;;;;;;5.87;3.80;;;22.40;91.30;;;;;;6107804;23;20399;-84
2021/08/16 14:05:15;;;;;;;3.33;3.03;;;22.60;91.00;;;;;;6199406;23;20434;-84
2021/08/16 14:07:42;;;;;;;5.03;3.73;;;22.30;90.50;;;;;;6199342;23;20395;-84
2021/08/16 14:10:11;;;;;;;5.20;3.70;;;22.80;90.70;;;;;;6199474;23;20404;-84
2021/08/16 14:12:41;;;;;;;4.30;3.60;;;23.40;90.40;;;;;;6199875;23;20413;-84
2021/08/16 14:22:32;;;;;;;;;;;;;;;;;;;;;
2021/08/16 14:25:55;;;;;;;;;;;;;;;;;;;;;
2021/08/16 15:16:15;;;;;;;;;;;;;;;;;;;;;
2021/08/16 15:34:37;;;;;;;2.60;1.90;;;24.00;75.80;;;;;;6148501;23;20465;-82
2021/08/16 15:37:05;;;;;;;2.80;2.60;;;23.90;77.50;;;;;;6199833;23;20992;-83
2021/08/16 15:39:37;;;;;;;2.57;2.37;;;24.10;78.40;;;;;;6197796;23;20452;-84
2021/08/16 15:42:19;;;;;;;4.13;3.77;;;24.20;78.70;;;;;;6197676;23;20424;-82
2021/08/16 15:44:49;;;;;;;3.77;2.67;;;24.10;77.30;;;;;;6197453;23;20765;-83
2021/08/16 15:47:23;;;;;;;3.60;2.43;;;23.70;77.70;;;;;;6196990;23;20462;-82
2021/08/16 15:49:54;;;;;;;2.83;2.63;;;23.40;79.00;;;;;;6197232;23;20404;-82
2021/08/16 15:52:21;;;;;;;3.17;2.20;;;23.40;79.90;;;;;;6196070;23;20801;-82
2021/08/16 15:54:47;;;;;;;3.40;2.73;;;23.40;81.60;;;;;;6195555;23;20447;-82
2021/08/16 15:57:14;;;;;;;3.77;2.90;;;23.10;79.70;;;;;;6195759;23;20487;-85
2021/08/16 15:59:41;;;;;;;3.70;2.77;;;22.80;80.70;;;;;;6195162;23;20930;-85
2021/08/16 16:02:18;;;;;;;;;;;;;;;;;;;;;
2021/08/16 16:04:46;;;;;;;4.60;3.33;;;22.80;81.10;;;;;;6195300;23;20456;-85
2021/08/16 16:07:15;;;;;;;5.33;2.20;;;22.70;82.60;;;;;;6196181;23;20451;-85
2021/08/16 16:09:42;;;;;;;6.40;3.10;;;22.50;83.90;;;;;;6195941;23;20612;-85
2021/08/16 16:12:10;;;;;;;3.50;3.20;;;22.50;84.40;;;;;;6195837;23;20413;-85
2021/08/16 16:14:40;;;;;;;2.93;2.73;;;22.50;83.80;;;;;;6197414;23;20415;-85
2021/08/16 16:17:07;;;;;;;3.90;2.80;;;22.50;84.10;;;;;;6196984;23;20402;-85
2021/08/16 16:19:34;;;;;;;4.00;2.70;;;22.40;83.50;;;;;;6196514;23;20447;-85
2021/08/16 16:22:03;;;;;;;2.50;2.30;;;22.30;84.50;;;;;;6194723;23;21007;-85
2021/08/16 16:24:33;;;;;;;3.17;2.87;;;22.20;84.20;;;;;;6195941;23;20410;-85
2021/08/16 16:27:04;;;;;;;2.50;2.27;;;22.10;84.90;;;;;;6195454;23;20417;-85
2021/08/16 16:29:31;;;;;;;4.33;2.23;;;22.10;86.10;;;;;;6195666;23;20420;-84
2021/08/16 16:31:57;;;;;;;2.67;2.47;;;22.00;86.80;;;;;;6195331;23;20400;-85
2021/08/16 16:34:25;;;;;;;3.17;2.57;;;22.00;87.20;;;;;;6195142;23;20575;-85
2021/08/16 16:40:04;;;;;;;2.60;2.27;;;21.90;85.60;;;;;;6044442;23;20424;-84
2021/08/16 16:42:32;;;;;;;2.30;2.10;;;21.80;87.50;;;;;;6162676;23;20408;-84
2021/08/16 16:45:05;;;;;;;1.83;1.70;;;21.90;86.60;;;;;;6195624;23;20432;-84
2021/08/16 16:47:35;;;;;;;3.93;2.00;;;21.90;85.20;;;;;;6195273;23;20396;-84
2021/08/16 16:50:04;;;;;;;3.23;2.93;;;21.90;86.20;;;;;;6194954;23;20399;-85
2021/08/16 16:52:31;;;;;;;3.30;2.57;;;22.00;87.40;;;;;;6195342;23;20757;-84
2021/08/16 16:54:58;;;;;;;1.93;1.83;;;22.50;86.00;;;;;;6196831;23;20467;-84
2021/08/16 16:57:26;;;;;;;3.70;2.67;;;22.80;85.10;;;;;;6196641;23;20424;-84
2021/08/16 16:59:53;;;;;;;3.77;2.83;;;23.10;84.70;;;;;;6196851;23;20446;-84
2021/08/16 17:02:20;;;;;;;2.53;2.33;;;23.00;84.50;;;;;;6196647;23;20441;-84
2021/08/16 17:04:47;;;;;;;2.20;1.77;;;23.00;84.80;;;;;;6195987;23;20763;-85
2021/08/16 17:07:13;;;;;;;2.73;2.13;;;22.90;84.90;;;;;;6196016;23;20423;-84
2021/08/16 17:09:40;;;;;;;2.47;1.90;;;22.60;85.70;;;;;;6196181;23;20413;-84
2021/08/16 17:12:07;;;;;;;3.20;2.00;;;22.20;86.40;;;;;;6195074;23;20415;-84
2021/08/16 17:14:37;;;;;;;3.40;1.93;;;21.80;88.20;;;;;;6194186;23;20499;-84
2021/08/16 17:17:04;;;;;;;2.10;1.80;;;21.60;88.20;;;;;;6195174;23;20418;-84
2021/08/16 17:19:31;;;;;;;3.43;2.87;;;21.20;89.80;;;;;;6194432;23;20456;-84
2021/08/16 17:21:58;;;;;;;2.07;1.70;;;21.00;90.20;;;;;;6194674;23;20425;-84
2021/08/16 17:24:25;;;;;;;3.73;3.20;;;20.80;90.70;;;;;;6194217;23;20441;-84
2021/08/16 17:26:52;;;;;;;2.13;1.83;;;20.60;90.90;;;;;;6195077;23;20404;-83
2021/08/16 17:29:22;;;;;;;4.97;4.50;;;20.40;91.10;;;;;;6194625;23;20417;-84
2021/08/16 17:32:16;;;;;;;3.33;1.90;;;20.20;91.80;;;;;;6193154;23;20412;-84
2021/08/16 17:38:27;;;;;;;3.07;2.00;;;19.90;92.70;;;;;;6016205;23;20433;-84
2021/08/16 17:41:01;;;;;;;3.33;2.70;;;19.80;92.90;;;;;;6113761;23;20459;-84
2021/08/16 17:46:47;;;;;;;2.10;1.90;;;19.60;93.40;;;;;;6135306;23;20447;-84
2021/08/16 17:55:45;;;;;;;;;;;;;;;;;;;;;
2021/08/16 17:58:38;;;;;;;;;;;;;;;;;;;;;
2021/08/16 18:11:19;;;;;;;1.53;1.43;;;19.10;94.50;;;;;;5951229;23;20482;-84
2021/08/16 18:13:49;;;;;;;2.60;1.40;;;19.10;94.30;;;;;;6081613;23;20944;-84
2021/08/16 18:16:28;;;;;;;;;;;;;;;;;;;;;
2021/08/16 18:23:09;;;;;;;4.63;2.50;;;19.00;94.60;;;;;;6042081;23;20456;-84
2021/08/16 18:55:45;;;;;;;3.73;1.77;;;18.60;96.10;;;;;;6171998;23;20466;-84
2021/08/16 19:05:03;;;;;;;2.03;1.67;;;18.70;95.80;;;;;;6193949;23;20430;-84
2021/08/16 19:07:52;;;;;;;2.67;1.80;;;18.60;96.10;;;;;;6051028;23;20432;-83
2021/08/16 19:10:20;;;;;;;1.50;1.40;;;18.40;96.70;;;;;;6192966;23;20920;-84
2021/08/16 19:12:48;;;;;;;1.50;1.33;;;18.30;97.60;;;;;;6199235;23;20432;-84
2021/08/16 19:15:15;;;;;;;2.17;1.90;;;18.00;99.90;;;;;;6199415;23;20466;-84
2021/08/16 19:17:42;;;;;;;1.97;1.60;;;17.70;99.90;;;;;;6199282;23;20805;-84
2021/08/16 19:20:10;;;;;;;2.73;2.13;;;17.30;99.90;;;;;;6200477;23;20514;-85
2021/08/16 19:42:35;;;;;;;5.80;5.27;;;15.10;99.90;;;;;;6022271;23;20417;-85
2021/08/16 19:45:16;;;;;;;6.83;6.13;;;14.90;99.90;;;;;;6188453;23;20434;-83
2021/08/16 19:50:55;;;;;;;12.03;9.73;;;14.50;99.90;;;;;;6185424;23;20398;-84
2021/08/16 19:54:00;;;;;;;16.97;10.40;;;14.40;99.90;;;;;;6190065;23;20418;-83
2021/08/16 19:56:43;;;;;;;18.10;10.70;;;14.30;99.90;;;;;;6190482;23;20920;-84
2021/08/16 19:59:20;;;;;;;20.53;12.80;;;14.20;99.90;;;;;;6192457;23;20921;-85
2021/08/16 20:02:13;;;;;;;18.57;14.50;;;14.10;99.90;;;;;;6192419;23;20401;-85
2021/08/16 20:05:10;;;;;;;20.57;15.43;;;14.00;99.90;;;;;;6191828;23;20398;-86
2021/08/16 20:08:11;;;;;;;;;;;;;;;;;;;;;
2021/08/16 20:10:43;;;;;;;16.50;14.07;;;13.80;99.90;;;;;;6181938;23;20441;-83
2021/08/16 20:17:05;;;;;;;20.43;14.70;;;13.80;99.90;;;;;;6190313;23;20426;-83
2021/08/16 20:20:01;;;;;;;;;;;;;;;;;;;;;
2021/08/16 20:32:58;;;;;;;;;;;;;;;;;;;;;
2021/08/16 21:01:48;;;;;;;27.30;19.10;;;13.80;99.90;;;;;;5720339;24;20574;-81
2021/08/16 21:04:14;;;;;;;24.23;17.07;;;13.70;99.90;;;;;;5844808;24;20411;-85
2021/08/16 21:06:41;;;;;;;20.27;16.10;;;13.70;99.90;;;;;;5914741;24;20512;-85
2021/08/16 21:09:08;;;;;;;25.47;17.83;;;13.60;99.90;;;;;;5961593;24;20427;-85
2021/08/16 21:11:35;;;;;;;29.13;17.23;;;13.70;99.90;;;;;;6060119;23;20816;-85
2021/08/16 21:14:01;;;;;;;29.10;19.27;;;13.70;99.90;;;;;;6074557;23;20737;-85
2021/08/16 21:16:28;;;;;;;28.40;19.50;;;13.60;99.90;;;;;;6073087;23;20429;-84
2021/08/16 21:18:56;;;;;;;31.40;19.53;;;13.60;99.90;;;;;;6103523;23;20406;-84
2021/08/16 21:21:23;;;;;;;27.80;19.70;;;13.70;99.90;;;;;;6191871;23;20452;-86
2021/08/16 21:23:56;;;;;;;29.10;19.13;;;13.80;99.90;;;;;;6192233;23;20448;-84
2021/08/16 21:26:26;;;;;;;23.13;17.67;;;13.90;99.90;;;;;;6191918;23;20782;-84
2021/08/16 21:28:55;;;;;;;29.87;19.80;;;14.00;99.90;;;;;;6189164;23;20410;-83
2021/08/16 21:31:22;;;;;;;30.07;20.60;;;13.90;99.90;;;;;;6186853;23;20441;-83
2021/08/16 21:33:49;;;;;;;26.97;21.20;;;13.90;99.90;;;;;;6190940;23;20731;-84
2021/08/16 21:36:17;;;;;;;26.60;19.47;;;14.00;99.90;;;;;;6191266;23;20419;-86
2021/08/16 21:38:44;;;;;;;29.27;21.23;;;14.10;99.90;;;;;;6190181;23;20416;-87
2021/08/16 21:41:11;;;;;;;32.10;22.10;;;14.20;99.90;;;;;;6186932;23;20445;-84
2021/08/16 21:43:40;;;;;;;23.07;19.63;;;14.20;99.90;;;;;;6186137;23;20751;-84
2021/08/16 21:46:07;;;;;;;27.50;18.80;;;14.30;99.90;;;;;;6187240;23;20489;-84
2021/08/16 21:48:34;;;;;;;30.50;19.43;;;14.40;99.90;;;;;;6187476;23;20481;-85
2021/08/16 21:51:01;;;;;;;26.70;21.23;;;14.50;99.90;;;;;;6188081;23;20488;-84
2021/08/16 21:53:33;;;;;;;32.90;20.07;;;14.40;99.90;;;;;;6186665;23;20417;-84
2021/08/16 21:56:00;;;;;;;26.90;20.30;;;14.40;99.90;;;;;;6186742;23;20436;-84
2021/08/16 21:58:27;;;;;;;30.40;22.47;;;14.50;99.90;;;;;;6187391;23;20414;-84
2021/08/16 22:00:53;;;;;;;21.93;17.33;;;14.60;99.90;;;;;;6187897;23;20993;-85
2021/08/16 22:03:20;;;;;;;26.70;18.00;;;14.60;99.90;;;;;;6186538;23;20410;-84
2021/08/16 22:05:47;;;;;;;29.37;19.60;;;14.60;99.90;;;;;;6187138;23;20524;-84
2021/08/16 22:08:14;;;;;;;25.33;18.30;;;14.60;99.90;;;;;;6187030;23;20414;-84
2021/08/16 22:10:42;;;;;;;33.90;20.20;;;14.60;99.90;;;;;;6187232;23;20411;-83
2021/08/16 22:13:09;;;;;;;30.13;19.53;;;14.60;99.90;;;;;;6187260;23;20485;-84
2021/08/16 22:15:36;;;;;;;21.83;18.40;;;14.60;99.90;;;;;;6189210;23;20496;-86
2021/08/16 22:18:03;;;;;;;24.00;18.87;;;14.60;99.90;;;;;;6198611;23;20433;-83
2021/08/16 22:20:36;;;;;;;27.37;19.10;;;14.60;99.90;;;;;;6201616;23;20450;-84
2021/08/16 22:23:03;;;;;;;27.77;19.67;;;14.60;99.90;;;;;;6196187;23;20410;-83
2021/08/16 22:25:30;;;;;;;28.80;21.70;;;14.60;99.90;;;;;;6191659;23;20493;-84
2021/08/16 22:53:38;;;;;;;4.77;3.70;;;12.60;99.90;;;;;;5889981;24;20811;-85
2021/08/16 22:56:05;;;;;;;4.87;3.50;;;12.50;99.90;;;;;;5912718;24;20488;-86
2021/08/16 22:58:31;;;;;;;5.40;4.17;;;12.50;99.90;;;;;;6010337;23;20417;-83
2021/08/16 23:00:59;;;;;;;4.63;2.93;;;12.40;99.90;;;;;;6169189;23;20445;-86
2021/08/16 23:03:26;;;;;;;4.30;2.50;;;12.40;99.90;;;;;;6193889;23;20424;-85
2021/08/16 23:05:52;;;;;;;4.53;2.97;;;12.40;99.90;;;;;;6192844;23;20439;-85
2021/08/16 23:08:19;;;;;;;5.60;3.57;;;12.40;99.90;;;;;;6192748;23;20405;-86
2021/08/16 23:10:47;;;;;;;6.10;4.13;;;12.30;99.90;;;;;;6192281;23;20512;-84
2021/08/16 23:13:14;;;;;;;7.00;3.40;;;12.20;99.90;;;;;;6191142;23;20414;-84
2021/08/16 23:15:43;;;;;;;4.53;3.63;;;12.20;99.90;;;;;;6191687;23;20418;-84
2021/08/16 23:18:09;;;;;;;6.53;3.70;;;12.20;99.90;;;;;;6193280;23;20424;-85
2021/08/16 23:20:36;;;;;;;9.87;5.40;;;12.20;99.90;;;;;;6192144;23;20445;-84
2021/08/16 23:23:03;;;;;;;7.13;5.13;;;12.20;99.90;;;;;;6191782;23;20418;-86
2021/08/16 23:25:31;;;;;;;9.10;4.67;;;12.20;99.90;;;;;;6191692;23;20444;-85
2021/08/16 23:27:59;;;;;;;6.30;4.70;;;12.10;99.90;;;;;;6192727;23;21015;-85
2021/08/16 23:30:26;;;;;;;5.70;3.87;;;12.10;99.90;;;;;;6193797;23;20419;-85
2021/08/16 23:32:54;;;;;;;10.23;5.20;;;12.10;99.90;;;;;;6192781;23;20427;-85
2021/08/16 23:35:23;;;;;;;10.77;6.07;;;12.10;99.90;;;;;;6192008;23;20429;-86
2021/08/16 23:44:36;;;;;;;8.23;5.70;;;12.20;99.90;;;;;;5986867;23;20492;-85
